createdAt,value
2018-07-19T00:00:48.955Z,0.00
2018-07-19T00:01:48.960Z,0.00
2018-07-19T00:02:48.951Z,0.00
2018-07-19T00:03:48.952Z,0.00
2018-07-19T00:04:48.949Z,0.00
2018-07-19T00:05:48.961Z,0.00
2018-07-19T00:06:48.947Z,0.00
2018-07-19T00:07:48.945Z,0.00
2018-07-19T00:08:48.949Z,0.00
2018-07-19T00:09:48.942Z,0.00
2018-07-19T00:10:48.942Z,0.00
2018-07-19T00:11:48.941Z,0.00
2018-07-19T00:12:48.940Z,0.00
2018-07-19T00:13:48.941Z,0.00
2018-07-19T00:14:48.937Z,0.00
2018-07-19T00:15:48.940Z,0.00
2018-07-19T00:16:48.941Z,0.00
2018-07-19T00:17:48.929Z,0.00
2018-07-19T00:18:48.943Z,0.00
2018-07-19T00:19:48.928Z,0.00
2018-07-19T00:20:48.935Z,0.00
2018-07-19T00:21:48.932Z,0.00
2018-07-19T00:22:48.919Z,0.00
2018-07-19T00:23:48.919Z,0.00
2018-07-19T00:24:48.922Z,0.00
2018-07-19T00:25:48.919Z,0.00
2018-07-19T00:26:48.918Z,0.00
2018-07-19T00:27:48.908Z,0.00
2018-07-19T00:28:48.914Z,0.00
2018-07-19T00:29:48.911Z,0.00
2018-07-19T00:30:48.908Z,0.00
2018-07-19T00:31:48.910Z,0.00
2018-07-19T00:32:48.905Z,0.00
2018-07-19T00:33:48.966Z,0.00
2018-07-19T00:34:48.903Z,0.00
2018-07-19T00:35:48.905Z,0.00
2018-07-19T00:36:48.906Z,0.00
2018-07-19T00:37:48.903Z,0.00
2018-07-19T00:38:48.895Z,0.00
2018-07-19T00:39:48.900Z,0.00
2018-07-19T00:40:48.894Z,0.00
2018-07-19T00:41:48.895Z,0.00
2018-07-19T00:42:48.893Z,0.00
2018-07-19T00:43:49.908Z,0.00
2018-07-19T00:44:48.889Z,0.00
2018-07-19T00:45:48.887Z,0.00
2018-07-19T00:46:48.892Z,0.00
2018-07-19T00:47:48.882Z,0.00
2018-07-19T00:48:48.888Z,0.00
2018-07-19T00:49:48.879Z,0.00
2018-07-19T00:50:48.881Z,0.00
2018-07-19T00:51:48.873Z,0.00
2018-07-19T00:52:48.871Z,0.00
2018-07-19T00:53:48.876Z,0.00
2018-07-19T00:54:48.867Z,0.00
2018-07-19T00:55:48.870Z,0.00
2018-07-19T00:56:48.871Z,0.00
2018-07-19T00:57:48.865Z,0.00
2018-07-19T00:58:48.864Z,0.00
2018-07-19T00:59:48.866Z,0.00
2018-07-19T01:00:48.856Z,0.00
2018-07-19T01:01:48.858Z,0.00
2018-07-19T01:02:48.851Z,0.00
2018-07-19T01:03:48.858Z,0.00
2018-07-19T01:04:48.848Z,0.00
2018-07-19T01:05:48.853Z,0.00
2018-07-19T01:06:48.845Z,0.00
2018-07-19T01:07:48.844Z,0.00
2018-07-19T01:08:48.843Z,0.00
2018-07-19T01:09:48.839Z,0.00
2018-07-19T01:10:48.837Z,0.00
2018-07-19T01:11:48.835Z,0.00
2018-07-19T01:12:48.837Z,0.00
2018-07-19T01:13:48.831Z,0.00
2018-07-19T01:14:48.832Z,0.00
2018-07-19T01:15:48.828Z,0.00
2018-07-19T01:16:48.838Z,0.00
2018-07-19T01:17:48.826Z,0.00
2018-07-19T01:18:48.824Z,0.00
2018-07-19T01:19:48.818Z,0.00
2018-07-19T01:20:48.815Z,0.00
2018-07-19T01:21:48.815Z,0.00
2018-07-19T01:22:48.814Z,0.00
2018-07-19T01:23:48.811Z,0.00
2018-07-19T01:24:48.811Z,0.00
2018-07-19T01:25:48.808Z,0.00
2018-07-19T01:26:48.807Z,0.00
2018-07-19T01:27:48.800Z,0.00
2018-07-19T01:28:48.798Z,0.00
2018-07-19T01:29:48.806Z,0.00
2018-07-19T01:30:48.794Z,0.00
2018-07-19T02:04:20.630Z,0.00
2018-07-19T02:05:20.578Z,0.00
2018-07-19T02:07:13.554Z,0.00
2018-07-19T02:08:13.524Z,0.00
2018-07-19T02:10:06.524Z,0.00
2018-07-19T02:11:06.516Z,0.00
2018-07-19T02:12:59.440Z,0.00
2018-07-19T02:13:59.416Z,0.00
2018-07-19T02:15:52.376Z,0.00
2018-07-19T02:16:52.354Z,0.00
2018-07-19T02:18:45.340Z,0.00
2018-07-19T02:19:45.333Z,0.00
2018-07-19T02:21:38.386Z,0.00
2018-07-19T02:22:38.360Z,0.00
2018-07-19T02:24:31.372Z,0.00
2018-07-19T02:25:31.357Z,0.00
2018-07-19T02:27:24.342Z,0.00
2018-07-19T02:28:24.318Z,0.00
2018-07-19T02:30:17.360Z,0.00
2018-07-19T02:31:17.362Z,0.00
2018-07-19T02:33:10.298Z,0.00
2018-07-19T02:34:10.274Z,0.00
2018-07-19T02:36:03.185Z,0.00
2018-07-19T02:37:03.165Z,0.00
2018-07-19T02:38:56.076Z,0.00
2018-07-19T02:39:56.066Z,0.00
2018-07-19T02:41:48.992Z,0.00
2018-07-19T02:42:48.975Z,0.00
2018-07-19T02:44:41.936Z,0.00
2018-07-19T02:45:41.923Z,0.00
2018-07-19T02:47:34.884Z,0.00
2018-07-19T02:48:34.858Z,0.00
2018-07-19T02:50:27.807Z,0.00
2018-07-19T02:51:27.787Z,0.00
2018-07-19T02:53:20.701Z,0.00
2018-07-19T02:54:20.690Z,0.00
2018-07-19T02:56:13.592Z,0.00
2018-07-19T02:57:13.585Z,0.00
2018-07-19T02:59:06.539Z,0.00
2018-07-19T03:00:06.521Z,0.00
2018-07-19T03:01:59.471Z,0.00
2018-07-19T03:02:59.399Z,0.00
2018-07-19T03:04:52.370Z,4.00
2018-07-19T03:05:52.359Z,4.00
2018-07-19T03:07:45.362Z,4.00
2018-07-19T03:08:45.284Z,4.00
2018-07-19T03:10:38.210Z,8.00
2018-07-19T03:11:38.199Z,4.00
2018-07-19T03:13:31.125Z,8.00
2018-07-19T03:14:31.105Z,12.00
2018-07-19T03:16:24.053Z,16.00
2018-07-19T03:17:24.037Z,12.00
2018-07-19T03:19:17.052Z,20.00
2018-07-19T03:20:17.032Z,24.00
2018-07-19T03:22:10.077Z,28.00
2018-07-19T03:23:10.039Z,36.00
2018-07-19T03:25:02.993Z,48.00
2018-07-19T03:26:02.973Z,52.00
2018-07-19T03:27:55.876Z,68.00
2018-07-19T03:28:55.856Z,80.00
2018-07-19T03:30:48.811Z,96.00
2018-07-19T03:31:48.769Z,108.00
2018-07-19T03:33:41.721Z,140.00
2018-07-19T03:34:41.709Z,156.00
2018-07-19T03:36:34.593Z,192.00
2018-07-19T03:37:34.584Z,216.00
2018-07-19T03:39:28.526Z,260.00
2018-07-19T03:40:28.506Z,280.00
2018-07-19T03:42:21.437Z,332.00
2018-07-19T03:43:21.413Z,356.00
2018-07-19T03:45:14.372Z,404.00
2018-07-19T03:46:14.363Z,436.00
2018-07-19T03:48:07.266Z,496.00
2018-07-19T03:49:07.288Z,532.00
2018-07-19T03:51:00.225Z,604.00
2018-07-19T03:52:00.206Z,644.00
2018-07-19T03:53:53.116Z,732.00
2018-07-19T03:54:53.092Z,780.00
2018-07-19T03:56:46.067Z,868.00
2018-07-19T03:57:46.056Z,920.00
2018-07-19T03:59:39.057Z,1020.00
2018-07-19T04:00:39.032Z,1068.00
2018-07-19T04:02:31.974Z,1176.00
2018-07-19T04:03:31.943Z,1240.00
2018-07-19T04:05:24.864Z,1356.00
2018-07-19T04:06:24.857Z,1424.00
2018-07-19T04:08:17.787Z,1552.00
2018-07-19T04:09:17.778Z,1628.00
2018-07-19T04:11:10.746Z,1784.00
2018-07-19T04:12:10.729Z,1868.00
2018-07-19T04:14:03.760Z,2016.00
2018-07-19T04:15:03.728Z,2100.00
2018-07-19T04:16:56.653Z,2264.00
2018-07-19T04:17:56.633Z,2340.00
2018-07-19T04:19:49.627Z,2504.00
2018-07-19T04:20:49.608Z,2608.00
2018-07-19T04:22:42.540Z,2768.00
2018-07-19T04:23:42.520Z,2844.00
2018-07-19T04:25:35.527Z,3032.00
2018-07-19T04:26:35.517Z,3120.00
2018-07-19T04:28:29.469Z,3232.00
2018-07-19T04:29:29.450Z,3340.00
2018-07-19T04:30:29.443Z,3472.00
2018-07-19T04:31:29.441Z,3584.00
2018-07-19T04:32:29.442Z,3680.00
2018-07-19T04:33:29.436Z,3764.00
2018-07-19T04:34:29.441Z,3852.00
2018-07-19T04:35:29.440Z,3968.00
2018-07-19T04:36:29.431Z,4100.00
2018-07-19T04:37:29.434Z,4216.00
2018-07-19T04:38:29.428Z,4312.00
2018-07-19T04:39:29.425Z,4408.00
2018-07-19T04:40:29.426Z,4500.00
2018-07-19T04:41:29.423Z,4592.00
2018-07-19T04:42:29.427Z,4676.00
2018-07-19T04:43:29.420Z,4756.00
2018-07-19T04:44:29.421Z,4836.00
2018-07-19T04:45:29.419Z,4920.00
2018-07-19T04:46:29.419Z,4992.00
2018-07-19T04:47:29.416Z,4896.00
2018-07-19T04:48:29.413Z,4972.00
2018-07-19T04:49:29.412Z,5036.00
2018-07-19T04:50:29.413Z,5092.00
2018-07-19T04:51:29.406Z,5148.00
2018-07-19T04:52:29.411Z,5208.00
2018-07-19T04:53:29.403Z,5292.00
2018-07-19T04:54:29.466Z,5392.00
2018-07-19T04:55:29.458Z,5484.00
2018-07-19T04:56:29.405Z,5580.00
2018-07-19T04:57:29.447Z,5672.00
2018-07-19T04:58:29.398Z,5764.00
2018-07-19T04:59:29.399Z,5844.00
2018-07-19T05:00:29.398Z,5924.00
2018-07-19T05:01:29.402Z,5992.00
2018-07-19T05:02:29.392Z,6084.00
2018-07-19T05:03:29.391Z,6144.00
2018-07-19T05:04:29.393Z,6224.00
2018-07-19T05:05:29.391Z,6280.00
2018-07-19T05:06:29.388Z,6300.00
2018-07-19T05:07:29.388Z,6340.00
2018-07-19T05:08:29.396Z,6476.00
2018-07-19T05:09:29.390Z,6620.00
2018-07-19T05:10:29.395Z,6720.00
2018-07-19T05:11:29.395Z,6760.00
2018-07-19T05:12:29.389Z,6784.00
2018-07-19T05:13:29.385Z,6780.00
2018-07-19T05:14:29.390Z,6660.00
2018-07-19T05:15:29.385Z,6576.00
2018-07-19T05:16:29.386Z,6564.00
2018-07-19T05:17:29.383Z,6628.00
2018-07-19T05:18:29.384Z,6660.00
2018-07-19T05:19:29.380Z,6712.00
2018-07-19T05:20:29.381Z,6760.00
2018-07-19T05:21:29.382Z,6904.00
2018-07-19T05:22:29.382Z,7080.00
2018-07-19T05:23:29.381Z,7264.00
2018-07-19T05:24:29.377Z,7344.00
2018-07-19T05:25:29.379Z,7436.00
2018-07-19T05:26:29.382Z,7528.00
2018-07-19T05:27:29.377Z,7632.00
2018-07-19T05:28:29.377Z,7752.00
2018-07-19T05:29:29.381Z,7880.00
2018-07-19T05:30:29.375Z,7996.00
2018-07-19T05:31:29.377Z,8104.00
2018-07-19T05:32:29.376Z,8216.00
2018-07-19T05:33:29.376Z,8336.00
2018-07-19T05:34:29.404Z,8468.00
2018-07-19T05:35:29.382Z,8584.00
2018-07-19T05:36:29.374Z,8672.00
2018-07-19T05:37:29.377Z,8764.00
2018-07-19T05:38:29.379Z,8852.00
2018-07-19T05:39:29.376Z,8920.00
2018-07-19T05:40:29.419Z,8980.00
2018-07-19T05:41:29.383Z,9056.00
2018-07-19T05:42:29.410Z,9120.00
2018-07-19T05:43:29.381Z,9180.00
2018-07-19T05:44:29.435Z,9244.00
2018-07-19T05:45:29.440Z,9300.00
2018-07-19T05:46:29.375Z,9336.00
2018-07-19T05:47:29.380Z,9376.00
2018-07-19T05:48:29.380Z,9416.00
2018-07-19T05:49:29.377Z,9448.00
2018-07-19T05:50:29.377Z,9492.00
2018-07-19T05:51:29.376Z,9528.00
2018-07-19T05:52:29.380Z,9584.00
2018-07-19T05:53:29.384Z,9628.00
2018-07-19T05:54:29.379Z,9672.00
2018-07-19T05:55:29.378Z,9732.00
2018-07-19T05:56:29.378Z,9828.00
2018-07-19T05:57:29.378Z,9880.00
2018-07-19T05:58:29.384Z,9952.00
2018-07-19T05:59:29.384Z,10016.00
2018-07-19T06:00:29.383Z,10080.00
2018-07-19T06:01:29.386Z,10140.00
2018-07-19T06:02:29.380Z,10212.00
2018-07-19T06:03:29.387Z,10312.00
2018-07-19T06:04:29.384Z,10368.00
2018-07-19T06:05:29.381Z,10408.00
2018-07-19T06:06:29.382Z,10532.00
2018-07-19T06:07:29.383Z,10596.00
2018-07-19T06:08:29.381Z,10600.00
2018-07-19T06:09:29.407Z,10700.00
2018-07-19T06:10:29.386Z,10788.00
2018-07-19T06:11:29.392Z,10824.00
2018-07-19T06:12:29.387Z,10980.00
2018-07-19T06:13:29.393Z,11048.00
2018-07-19T06:14:29.392Z,11200.00
2018-07-19T06:15:29.392Z,11392.00
2018-07-19T06:16:29.392Z,11504.00
2018-07-19T06:17:29.390Z,11448.00
2018-07-19T06:18:29.444Z,11476.00
2018-07-19T06:19:29.394Z,11384.00
2018-07-19T06:20:29.396Z,11324.00
2018-07-19T06:21:29.397Z,11288.00
2018-07-19T06:22:29.401Z,11224.00
2018-07-19T06:23:29.395Z,11280.00
2018-07-19T06:24:29.396Z,11280.00
2018-07-19T06:25:29.396Z,11296.00
2018-07-19T06:26:29.407Z,11268.00
2018-07-19T06:27:29.408Z,11248.00
2018-07-19T06:28:29.401Z,11232.00
2018-07-19T06:29:29.400Z,11256.00
2018-07-19T06:30:29.404Z,11296.00
2018-07-19T06:31:29.479Z,11352.00
2018-07-19T06:32:29.412Z,11392.00
2018-07-19T06:33:29.414Z,11416.00
2018-07-19T06:34:29.414Z,11428.00
2018-07-19T06:35:29.409Z,11392.00
2018-07-19T06:36:29.411Z,11452.00
2018-07-19T06:37:29.416Z,11464.00
2018-07-19T06:38:29.412Z,11476.00
2018-07-19T06:39:29.419Z,11496.00
2018-07-19T06:40:29.417Z,11532.00
2018-07-19T06:41:29.420Z,11544.00
2018-07-19T06:42:29.423Z,11580.00
2018-07-19T06:43:29.428Z,11600.00
2018-07-19T06:44:29.429Z,11656.00
2018-07-19T06:45:29.431Z,11652.00
2018-07-19T06:46:29.430Z,11688.00
2018-07-19T06:47:29.432Z,11716.00
2018-07-19T06:48:29.442Z,11760.00
2018-07-19T06:49:29.474Z,11844.00
2018-07-19T06:50:29.444Z,11908.00
2018-07-19T06:51:29.441Z,11992.00
2018-07-19T06:52:29.446Z,12072.00
2018-07-19T06:53:29.444Z,12144.00
2018-07-19T06:54:29.444Z,12200.00
2018-07-19T06:55:29.444Z,12260.00
2018-07-19T06:56:29.444Z,12304.00
2018-07-19T06:57:29.460Z,12332.00
2018-07-19T06:58:29.454Z,12360.00
2018-07-19T06:59:29.458Z,12400.00
2018-07-19T07:00:29.460Z,12400.00
2018-07-19T07:01:29.462Z,12444.00
2018-07-19T07:02:29.463Z,12480.00
2018-07-19T07:03:29.473Z,12508.00
2018-07-19T07:04:29.463Z,12552.00
2018-07-19T07:05:29.470Z,12620.00
2018-07-19T07:06:29.475Z,12664.00
2018-07-19T07:07:29.476Z,12740.00
2018-07-19T07:08:29.476Z,12904.00
2018-07-19T07:09:29.477Z,13372.00
2018-07-19T07:10:29.522Z,14028.00
2018-07-19T07:11:29.487Z,14840.00
2018-07-19T07:12:29.489Z,23968.00
2018-07-19T07:13:29.487Z,45152.00
2018-07-19T07:14:29.496Z,60288.00
2018-07-19T07:15:29.501Z,59936.00
2018-07-19T07:16:29.505Z,53952.00
2018-07-19T07:17:29.506Z,53728.00
2018-07-19T07:18:29.505Z,54272.00
2018-07-19T07:19:29.513Z,55392.00
2018-07-19T07:20:29.519Z,56064.00
2018-07-19T07:21:29.526Z,57376.00
2018-07-19T07:22:29.533Z,55648.00
2018-07-19T07:23:29.544Z,54624.00
2018-07-19T07:24:29.545Z,58112.00
2018-07-19T07:25:29.553Z,60704.00
2018-07-19T07:26:29.565Z,57472.00
2018-07-19T07:27:29.572Z,60608.00
2018-07-19T07:28:29.581Z,58848.00
2018-07-19T07:29:29.587Z,62176.00
2018-07-19T07:30:29.607Z,64288.00
2018-07-19T07:31:29.611Z,60256.00
2018-07-19T07:32:29.618Z,61856.00
2018-07-19T07:33:29.627Z,60352.00
2018-07-19T07:34:29.645Z,61856.00
2018-07-19T07:35:30.435Z,70816.00
2018-07-19T07:36:29.660Z,65184.00
2018-07-19T07:37:29.669Z,66240.00
2018-07-19T07:38:29.682Z,71328.00
2018-07-19T07:39:29.686Z,78048.00
2018-07-19T07:40:29.710Z,75488.00
2018-07-19T07:41:29.717Z,67392.00
2018-07-19T07:42:29.737Z,67872.00
2018-07-19T07:43:29.741Z,64416.00
2018-07-19T07:44:29.785Z,66784.00
2018-07-19T07:45:29.761Z,70080.00
2018-07-19T07:46:29.782Z,72416.00
2018-07-19T07:47:29.794Z,73248.00
2018-07-19T07:48:29.804Z,70624.00
2018-07-19T07:49:29.821Z,73216.00
2018-07-19T07:50:29.832Z,75936.00
2018-07-19T07:51:29.864Z,75232.00
2018-07-19T07:52:29.862Z,75328.00
2018-07-19T07:53:29.862Z,72800.00
2018-07-19T07:54:30.047Z,72640.00
2018-07-19T07:55:29.902Z,73312.00
2018-07-19T07:56:29.907Z,75424.00
2018-07-19T07:57:29.924Z,78496.00
2018-07-19T07:58:29.937Z,78080.00
2018-07-19T07:59:29.951Z,75520.00
2018-07-19T08:00:29.979Z,78624.00
2018-07-19T08:01:29.981Z,80544.00
2018-07-19T08:02:29.992Z,80064.00
2018-07-19T08:03:30.002Z,77184.00
2018-07-19T08:04:30.022Z,80672.00
2018-07-19T08:05:30.035Z,82976.00
2018-07-19T08:06:30.051Z,80096.00
2018-07-19T08:07:30.063Z,80864.00
2018-07-19T08:08:30.082Z,81312.00
2018-07-19T08:09:30.120Z,82592.00
2018-07-19T08:10:30.113Z,80544.00
2018-07-19T08:11:30.119Z,79712.00
2018-07-19T08:12:30.142Z,79040.00
2018-07-19T08:13:30.155Z,79584.00
2018-07-19T08:14:30.163Z,79200.00
2018-07-19T08:15:30.174Z,77088.00
2018-07-19T08:16:30.196Z,79040.00
2018-07-19T08:17:30.209Z,84768.00
2018-07-19T08:18:30.230Z,77792.00
2018-07-19T08:19:30.239Z,72768.00
2018-07-19T08:20:30.255Z,78080.00
2018-07-19T08:21:30.272Z,81728.00
2018-07-19T08:22:30.285Z,78208.00
2018-07-19T08:23:30.298Z,73952.00
2018-07-19T08:24:30.314Z,77664.00
2018-07-19T08:25:30.332Z,75840.00
2018-07-19T08:26:30.345Z,76960.00
2018-07-19T08:27:30.364Z,89536.00
2018-07-19T08:28:30.381Z,98240.00
2018-07-19T08:29:30.394Z,93984.00
2018-07-19T08:30:30.406Z,92480.00
2018-07-19T08:31:30.428Z,91648.00
2018-07-19T08:32:30.442Z,94880.00
2018-07-19T08:33:30.456Z,103136.00
2018-07-19T08:34:30.473Z,95552.00
2018-07-19T08:35:30.503Z,90880.00
2018-07-19T08:36:30.506Z,93216.00
2018-07-19T08:37:30.518Z,99520.00
2018-07-19T08:38:30.543Z,98368.00
2018-07-19T08:39:30.553Z,95296.00
2018-07-19T08:40:30.572Z,97376.00
2018-07-19T08:41:30.585Z,88832.00
2018-07-19T08:42:30.603Z,89280.00
2018-07-19T08:43:30.618Z,93600.00
2018-07-19T08:44:30.637Z,89728.00
2018-07-19T08:45:30.649Z,86848.00
2018-07-19T08:46:30.670Z,88896.00
2018-07-19T08:47:30.690Z,90592.00
2018-07-19T08:48:30.700Z,84128.00
2018-07-19T08:49:30.712Z,81024.00
2018-07-19T08:50:30.733Z,78112.00
2018-07-19T08:51:30.770Z,86112.00
2018-07-19T08:52:30.769Z,93056.00
2018-07-19T08:53:30.786Z,91360.00
2018-07-19T08:54:30.823Z,90016.00
2018-07-19T08:55:30.821Z,87680.00
2018-07-19T08:56:30.852Z,91776.00
2018-07-19T08:57:30.855Z,91936.00
2018-07-19T08:58:30.870Z,96832.00
2018-07-19T08:59:30.892Z,104800.00
2018-07-19T09:00:30.927Z,103264.00
2018-07-19T09:01:30.928Z,101472.00
2018-07-19T09:02:30.953Z,97632.00
2018-07-19T09:03:30.964Z,102400.00
2018-07-19T09:04:30.982Z,106400.00
2018-07-19T09:05:30.999Z,102240.00
2018-07-19T09:06:31.025Z,107936.00
2018-07-19T09:07:31.034Z,110560.00
2018-07-19T09:08:31.056Z,96896.00
2018-07-19T09:09:31.083Z,92032.00
2018-07-19T09:10:31.107Z,89664.00
2018-07-19T09:11:31.116Z,83904.00
2018-07-19T09:12:31.141Z,86432.00
2018-07-19T09:13:31.166Z,89280.00
2018-07-19T09:14:31.175Z,84896.00
2018-07-19T09:15:31.203Z,79168.00
2018-07-19T09:16:31.221Z,78624.00
2018-07-19T09:17:31.233Z,89792.00
2018-07-19T09:18:31.256Z,92064.00
2018-07-19T09:19:31.384Z,86848.00
2018-07-19T09:20:31.298Z,90816.00
2018-07-19T09:21:31.315Z,85248.00
2018-07-19T09:22:31.337Z,74912.00
2018-07-19T09:23:31.359Z,69664.00
2018-07-19T09:24:31.375Z,69152.00
2018-07-19T09:25:31.405Z,75328.00
2018-07-19T09:26:31.449Z,73792.00
2018-07-19T09:27:31.438Z,74592.00
2018-07-19T09:28:31.460Z,73344.00
2018-07-19T09:29:31.477Z,65248.00
2018-07-19T09:30:31.487Z,75712.00
2018-07-19T09:31:31.515Z,77472.00
2018-07-19T09:32:31.544Z,69664.00
2018-07-19T09:33:31.562Z,76384.00
2018-07-19T09:34:31.575Z,77120.00
2018-07-19T09:35:31.594Z,73504.00
2018-07-19T09:36:31.612Z,73728.00
2018-07-19T09:37:31.629Z,69376.00
2018-07-19T09:38:31.722Z,68224.00
2018-07-19T09:39:31.670Z,76864.00
2018-07-19T09:40:31.686Z,77984.00
2018-07-19T09:41:31.704Z,73664.00
2018-07-19T09:42:31.728Z,77280.00
2018-07-19T09:43:31.770Z,81824.00
2018-07-19T09:44:31.761Z,81184.00
2018-07-19T09:45:31.781Z,73632.00
2018-07-19T09:46:31.799Z,71776.00
2018-07-19T09:47:31.816Z,71744.00
2018-07-19T09:48:31.834Z,73280.00
2018-07-19T09:49:31.854Z,72640.00
2018-07-19T09:50:31.875Z,71936.00
2018-07-19T09:51:31.887Z,75872.00
2018-07-19T09:52:31.905Z,74656.00
2018-07-19T09:53:31.921Z,72416.00
2018-07-19T09:54:31.957Z,72864.00
2018-07-19T09:55:31.957Z,70240.00
2018-07-19T09:56:31.973Z,68224.00
2018-07-19T09:57:31.994Z,72192.00
2018-07-19T09:58:32.011Z,72704.00
2018-07-19T09:59:32.071Z,68064.00
2018-07-19T10:00:32.052Z,68576.00
2018-07-19T10:01:32.102Z,74720.00
2018-07-19T10:02:32.094Z,69856.00
2018-07-19T10:03:32.100Z,69760.00
2018-07-19T10:04:32.117Z,74944.00
2018-07-19T10:05:32.139Z,76128.00
2018-07-19T10:06:32.157Z,79456.00
2018-07-19T10:07:32.181Z,78368.00
2018-07-19T10:08:32.190Z,74784.00
2018-07-19T10:09:32.215Z,76032.00
2018-07-19T10:10:32.233Z,74752.00
2018-07-19T10:11:32.255Z,73984.00
2018-07-19T10:12:32.270Z,77408.00
2018-07-19T10:13:32.323Z,76704.00
2018-07-19T10:14:32.308Z,78368.00
2018-07-19T10:15:32.334Z,83264.00
2018-07-19T10:16:32.344Z,77056.00
2018-07-19T10:17:32.363Z,76064.00
2018-07-19T10:18:32.373Z,82080.00
2018-07-19T10:19:32.403Z,74656.00
2018-07-19T10:20:32.418Z,79456.00
2018-07-19T10:21:32.426Z,86496.00
2018-07-19T10:22:32.446Z,88480.00
2018-07-19T10:23:32.469Z,85824.00
2018-07-19T10:24:32.486Z,74784.00
2018-07-19T10:25:32.506Z,75904.00
2018-07-19T10:26:32.568Z,83296.00
2018-07-19T10:27:32.538Z,86144.00
2018-07-19T10:28:32.579Z,89632.00
2018-07-19T10:29:32.587Z,87744.00
2018-07-19T10:30:32.637Z,78368.00
2018-07-19T10:31:32.617Z,79040.00
2018-07-19T10:32:32.699Z,79968.00
2018-07-19T10:33:32.646Z,83392.00
2018-07-19T10:34:32.672Z,82400.00
2018-07-19T10:35:32.694Z,80384.00
2018-07-19T10:36:32.704Z,83456.00
2018-07-19T10:37:32.765Z,80896.00
2018-07-19T10:38:32.748Z,77760.00
2018-07-19T10:39:32.766Z,88704.00
2018-07-19T10:40:32.818Z,86304.00
2018-07-19T10:41:32.800Z,76864.00
2018-07-19T10:42:32.820Z,80384.00
2018-07-19T10:43:32.839Z,78240.00
2018-07-19T10:44:32.852Z,76960.00
2018-07-19T10:45:32.871Z,79232.00
2018-07-19T10:46:32.894Z,83360.00
2018-07-19T10:47:32.911Z,80320.00
2018-07-19T10:48:32.928Z,79168.00
2018-07-19T10:49:32.965Z,83712.00
2018-07-19T10:50:32.963Z,81216.00
2018-07-19T10:51:32.988Z,79456.00
2018-07-19T10:52:33.001Z,83456.00
2018-07-19T10:53:33.018Z,84416.00
2018-07-19T10:54:33.039Z,84224.00
2018-07-19T10:55:33.059Z,79264.00
2018-07-19T10:56:33.075Z,80352.00
2018-07-19T10:57:33.163Z,86208.00
2018-07-19T10:58:33.113Z,87840.00
2018-07-19T10:59:33.132Z,81344.00
2018-07-19T11:00:33.148Z,80512.00
2018-07-19T11:01:33.168Z,80800.00
2018-07-19T11:02:33.185Z,81440.00
2018-07-19T11:03:33.217Z,84512.00
2018-07-19T11:04:33.226Z,84192.00
2018-07-19T11:05:33.235Z,83520.00
2018-07-19T11:06:33.271Z,86848.00
2018-07-19T11:07:33.279Z,89504.00
2018-07-19T11:08:33.306Z,87104.00
2018-07-19T11:09:33.397Z,89440.00
2018-07-19T11:10:33.338Z,92000.00
2018-07-19T11:11:33.356Z,86208.00
2018-07-19T11:12:33.381Z,87008.00
2018-07-19T11:13:33.390Z,93472.00
2018-07-19T11:14:33.416Z,93472.00
2018-07-19T11:15:33.436Z,88032.00
2018-07-19T11:16:33.459Z,39584.00
2018-07-19T11:17:33.472Z,25568.00
2018-07-19T11:18:33.487Z,27136.00
2018-07-19T11:19:33.508Z,91872.00
2018-07-19T11:20:33.527Z,92352.00
2018-07-19T11:21:33.544Z,65056.00
2018-07-19T11:22:33.566Z,24032.00
2018-07-19T11:23:33.581Z,68640.00
2018-07-19T11:24:33.603Z,87648.00
2018-07-19T11:25:33.661Z,88000.00
2018-07-19T11:26:33.631Z,91424.00
2018-07-19T11:27:33.650Z,93216.00
2018-07-19T11:28:33.664Z,87584.00
2018-07-19T11:29:33.676Z,87936.00
2018-07-19T11:30:33.701Z,84832.00
2018-07-19T11:31:33.711Z,83424.00
2018-07-19T11:32:33.729Z,83488.00
2018-07-19T11:33:33.754Z,80224.00
2018-07-19T11:34:33.762Z,75520.00
2018-07-19T11:35:33.784Z,75520.00
2018-07-19T11:36:33.799Z,81696.00
2018-07-19T11:37:33.825Z,81728.00
2018-07-19T11:38:33.845Z,84992.00
2018-07-19T11:39:33.853Z,85024.00
2018-07-19T11:40:33.876Z,82144.00
2018-07-19T11:41:33.928Z,80832.00
2018-07-19T11:42:33.903Z,69920.00
2018-07-19T11:43:33.920Z,45088.00
2018-07-19T11:44:33.945Z,34944.00
2018-07-19T11:45:34.003Z,80032.00
2018-07-19T11:46:33.970Z,81696.00
2018-07-19T11:47:33.991Z,82528.00
2018-07-19T11:48:34.009Z,82784.00
2018-07-19T11:49:34.033Z,81248.00
2018-07-19T11:50:34.043Z,75808.00
2018-07-19T11:51:34.061Z,77216.00
2018-07-19T11:52:34.079Z,80640.00
2018-07-19T11:53:34.101Z,78400.00
2018-07-19T11:54:34.112Z,80864.00
2018-07-19T11:55:34.136Z,87776.00
2018-07-19T11:56:34.149Z,87072.00
2018-07-19T11:57:34.168Z,83680.00
2018-07-19T11:58:34.200Z,75552.00
2018-07-19T11:59:34.204Z,73792.00
2018-07-19T12:00:34.224Z,80320.00
2018-07-19T12:01:34.242Z,82432.00
2018-07-19T12:02:34.299Z,77888.00
2018-07-19T12:03:34.285Z,75648.00
2018-07-19T12:04:34.302Z,76736.00
2018-07-19T12:05:34.317Z,79360.00
2018-07-19T12:06:34.340Z,81120.00
2018-07-19T12:07:34.365Z,78016.00
2018-07-19T12:08:34.372Z,73760.00
2018-07-19T12:09:34.391Z,74880.00
2018-07-19T12:10:34.413Z,79040.00
2018-07-19T12:11:34.426Z,82912.00
2018-07-19T12:12:34.445Z,80704.00
2018-07-19T12:13:34.463Z,80480.00
2018-07-19T12:14:34.482Z,80992.00
2018-07-19T12:15:34.499Z,79264.00
2018-07-19T12:16:34.526Z,83488.00
2018-07-19T12:17:34.534Z,90400.00
2018-07-19T12:18:34.555Z,85760.00
2018-07-19T12:19:34.575Z,81408.00
2018-07-19T12:20:34.590Z,85344.00
2018-07-19T12:21:34.611Z,85984.00
2018-07-19T12:22:34.632Z,86464.00
2018-07-19T12:23:34.651Z,83104.00
2018-07-19T12:24:34.664Z,77952.00
2018-07-19T12:25:34.714Z,76224.00
2018-07-19T12:26:34.704Z,78208.00
2018-07-19T12:27:34.720Z,77920.00
2018-07-19T12:28:34.737Z,74304.00
2018-07-19T12:29:34.759Z,77856.00
2018-07-19T12:30:34.771Z,76960.00
2018-07-19T12:31:34.790Z,77984.00
2018-07-19T12:32:34.807Z,78368.00
2018-07-19T12:33:34.823Z,78592.00
2018-07-19T12:34:34.835Z,80832.00
2018-07-19T12:35:34.878Z,84192.00
2018-07-19T12:36:34.872Z,85920.00
2018-07-19T12:37:34.893Z,80032.00
2018-07-19T12:38:34.906Z,78176.00
2018-07-19T12:39:34.930Z,73824.00
2018-07-19T12:40:34.941Z,35744.00
2018-07-19T12:41:34.956Z,13180.00
2018-07-19T12:42:34.978Z,12808.00
2018-07-19T12:43:34.983Z,12940.00
2018-07-19T12:44:35.003Z,12716.00
2018-07-19T12:45:35.017Z,13028.00
2018-07-19T12:46:35.024Z,13524.00
2018-07-19T12:47:35.047Z,13756.00
2018-07-19T12:48:35.058Z,13620.00
2018-07-19T12:49:35.074Z,13156.00
2018-07-19T12:50:35.085Z,12796.00
2018-07-19T12:51:35.099Z,12988.00
2018-07-19T12:52:35.107Z,13076.00
2018-07-19T12:53:35.120Z,13280.00
2018-07-19T12:54:35.135Z,13508.00
2018-07-19T12:55:35.140Z,13436.00
2018-07-19T12:56:35.150Z,13544.00
2018-07-19T12:57:35.175Z,14048.00
2018-07-19T12:58:35.173Z,14020.00
2018-07-19T12:59:35.186Z,14172.00
2018-07-19T13:00:35.191Z,13624.00
2018-07-19T13:01:35.199Z,11832.00
2018-07-19T13:02:35.208Z,11528.00
2018-07-19T13:03:35.215Z,11788.00
2018-07-19T13:04:35.231Z,11184.00
2018-07-19T13:05:35.232Z,11032.00
2018-07-19T13:06:35.239Z,11056.00
2018-07-19T13:07:35.249Z,11096.00
2018-07-19T13:08:35.255Z,11588.00
2018-07-19T13:09:35.267Z,11440.00
2018-07-19T13:10:35.271Z,11164.00
2018-07-19T13:11:35.277Z,11284.00
2018-07-19T13:12:35.285Z,11328.00
2018-07-19T13:13:35.295Z,11032.00
2018-07-19T13:14:35.300Z,10568.00
2018-07-19T13:15:35.306Z,10364.00
2018-07-19T13:16:35.318Z,10544.00
2018-07-19T13:17:35.316Z,10668.00
2018-07-19T13:18:35.328Z,10728.00
2018-07-19T13:19:35.336Z,10532.00
2018-07-19T13:20:35.341Z,10392.00
2018-07-19T13:21:35.357Z,10464.00
2018-07-19T13:22:35.359Z,9928.00
2018-07-19T13:23:35.365Z,9512.00